Posh Sincero — 3EC07 — position and weather

sailwx.info

Track history (hours):
 
Tides and Currents Weather Stations Pressure Air Temp Water Temp Dewpoint Dewpoint Depression Visibility Wind Speed Wind Dir Waves Ship Positions

Posh Sincero

Last reported at 2017-Sep-22 02:00 UTC. Time now 2017-Sep-22 02:39 UTC.
Position N 04°29' W 002°29'.

Length 74 m; draft 4.9 m.

Type: Other ship. MMSI: 357667000.

Date/timePositionNaut miles runAvg speedWind from/ knotsBaromVisibWave heightAir tempDewpointWater temp
2017-Sep-22 02:00N 04°29' W 002°29'0 0.0
2017-Sep-22 01:30N 04°29' W 002°29'0 0.1
2017-Sep-22 01:00N 04°29' W 002°29'0 0.6
2017-Sep-22 00:29N 04°29' W 002°29'1 1.7
2017-Sep-21 23:59N 04°29' W 002°28'2 4.6
2017-Sep-21 23:31N 04°30' W 002°26'2 4.7
2017-Sep-21 23:00N 04°30' W 002°23'2 4.8
2017-Sep-21 22:29N 04°31' W 002°21'3 5.1
2017-Sep-21 21:59N 04°31' W 002°19'2 5.1
2017-Sep-21 21:30N 04°32' W 002°16'2 4.5
2017-Sep-21 21:00N 04°32' W 002°14'2 4.6
2017-Sep-21 20:27N 04°33' W 002°12'2 5.0
2017-Sep-21 20:00N 04°33' W 002°09'3 5.0
2017-Sep-21 19:30N 04°34' W 002°07'2 4.9
2017-Sep-21 19:00N 04°35' W 002°04'27 0.6
2017-Sep-19 18:52N 04°53' W 001°45'0 0.0
2017-Sep-19 18:22N 04°53' W 001°45'0 0.0
2017-Sep-19 17:58N 04°53' W 001°45'0 0.0
2017-Sep-19 17:25N 04°53' W 001°45'0 0.0
2017-Sep-19 16:58N 04°53' W 001°45'0 0.0
2017-Sep-19 16:28N 04°53' W 001°45'0 0.0
2017-Sep-19 15:58N 04°53' W 001°45'0 0.0
2017-Sep-19 15:28N 04°53' W 001°45'0 0.0
2017-Sep-19 14:58N 04°53' W 001°45'0 0.0
2017-Sep-19 14:28N 04°53' W 001°45'0 0.0
2017-Sep-19 13:58N 04°53' W 001°45'0 0.0
2017-Sep-19 13:28N 04°53' W 001°45'0 0.0
2017-Sep-19 12:58N 04°53' W 001°45'0 0.0
2017-Sep-19 12:28N 04°53' W 001°45'0 0.0
2017-Sep-19 11:58N 04°53' W 001°45'0 0.0
2017-Sep-19 11:28N 04°53' W 001°45'0 0.0
2017-Sep-19 10:58N 04°53' W 001°45'0 0.0
2017-Sep-19 10:28N 04°53' W 001°45'0 0.0
2017-Sep-19 09:58N 04°53' W 001°45'0 0.0
2017-Sep-19 09:28N 04°53' W 001°45'0 0.0
2017-Sep-19 08:58N 04°53' W 001°45'0 0.0
2017-Sep-19 08:25N 04°53' W 001°45'0 0.0
2017-Sep-19 07:58N 04°53' W 001°45'0 0.0
2017-Sep-19 07:25N 04°53' W 001°45'0 0.0
2017-Sep-19 06:58N 04°53' W 001°45'0 0.0
2017-Sep-19 06:25N 04°53' W 001°45'25 1.0
2017-Sep-18 05:14N 04°35' W 002°02'1 5.1
2017-Sep-18 05:00N 04°34' W 002°03'3 5.1
2017-Sep-18 04:29N 04°34' W 002°05'3 5.2
2017-Sep-18 03:59N 04°33' W 002°08'2 5.2
2017-Sep-18 03:30N 04°33' W 002°10'3 5.2
2017-Sep-18 03:00N 04°32' W 002°13'3 5.3
2017-Sep-18 02:29N 04°32' W 002°16'3 5.3
2017-Sep-18 01:59N 04°31' W 002°18'3 5.3
2017-Sep-18 01:30N 04°31' W 002°21'3 5.2
2017-Sep-18 01:00N 04°30' W 002°23'3 5.2
2017-Sep-18 00:29N 04°30' W 002°26'3 5.1
2017-Sep-17 23:59N 04°30' W 002°29'1 1.9
2017-Sep-17 23:29N 04°29' W 002°29'0 0.0
2017-Sep-17 23:00N 04°29' W 002°29'0 0.3
2017-Sep-17 22:30N 04°29' W 002°29'0 0.2
2017-Sep-17 22:00N 04°29' W 002°29'1 1.9
2017-Sep-17 21:29N 04°30' W 002°29'1 2.9
2017-Sep-17 20:59N 04°31' W 002°30'0 0.9
2017-Sep-17 20:29N 04°32' W 002°30'1 2.8
2017-Sep-17 19:59N 04°30' W 002°29'1 1.2
2017-Sep-17 19:30N 04°30' W 002°29'0 0.3
2017-Sep-17 19:00N 04°30' W 002°29'1 1.2
2017-Sep-17 18:29N 04°30' W 002°29'0 1.0
2017-Sep-17 17:59N 04°31' W 002°29'0 1.0
2017-Sep-17 17:30N 04°31' W 002°29'0 1.0
2017-Sep-17 17:00N 04°32' W 002°29'0 0.5
2017-Sep-17 16:30N 04°32' W 002°29'1 2.8
2017-Sep-17 15:59N 04°30' W 002°30'0 0.7
2017-Sep-17 15:28N 04°30' W 002°29'1 1.7
2017-Sep-17 15:00N 04°31' W 002°29'1 2.1
2017-Sep-17 14:30N 04°32' W 002°28'1 2.0
2017-Sep-17 13:59N 04°33' W 002°28'1 1.2
2017-Sep-17 13:29N 04°33' W 002°27'1 2.2
2017-Sep-17 12:59N 04°32' W 002°28'1 2.1
2017-Sep-17 12:30N 04°31' W 002°28'1 2.3
2017-Sep-17 12:00N 04°30' W 002°28'0 1.0
2017-Sep-17 11:29N 04°30' W 002°28'1 1.6
2017-Sep-17 10:59N 04°31' W 002°28'1 1.1
2017-Sep-17 10:30N 04°32' W 002°28'1 2.4
2017-Sep-17 10:00N 04°30' W 002°28'1 2.4
2017-Sep-17 09:29N 04°29' W 002°28'0 0.6
2017-Sep-17 08:59N 04°30' W 002°28'0 0.7
2017-Sep-17 08:28N 04°30' W 002°28'0 0.8
2017-Sep-17 08:00N 04°30' W 002°28'0 0.8
2017-Sep-17 07:30N 04°31' W 002°28'0 0.9
2017-Sep-17 06:59N 04°31' W 002°28'1 1.2
2017-Sep-17 06:29N 04°32' W 002°28'1 1.1
2017-Sep-17 06:00N 04°32' W 002°28'0 0.7
2017-Sep-17 05:30N 04°33' W 002°28'0 0.4
2017-Sep-17 04:59N 04°33' W 002°28'0 0.4
2017-Sep-17 04:29N 04°33' W 002°28'0 0.3
2017-Sep-17 04:00N 04°33' W 002°28'1 2.1
2017-Sep-17 03:30N 04°32' W 002°29'1 2.0
2017-Sep-17 03:00N 04°31' W 002°29'0 0.8
2017-Sep-17 02:29N 04°31' W 002°29'0 0.9
2017-Sep-17 01:59N 04°31' W 002°30'0 0.9
2017-Sep-17 01:30N 04°31' W 002°30'0 0.8
2017-Sep-17 01:00N 04°32' W 002°30'1 1.1
2017-Sep-17 00:30N 04°32' W 002°31'1 1.1
2017-Sep-16 23:59N 04°33' W 002°31'0 0.3
2017-Sep-16 23:29N 04°33' W 002°31'0 0.4
2017-Sep-16 23:00N 04°33' W 002°31'0 0.0
2017-Sep-16 22:30N 04°33' W 002°31'1 2.1
2017-Sep-16 22:00N 04°32' W 002°31'1 2.0
2017-Sep-16 21:29N 04°31' W 002°30'1 1.9
2017-Sep-16 20:59N 04°30' W 002°30'0 0.6
2017-Sep-16 20:30N 04°30' W 002°30'0 0.3
2017-Sep-16 20:00N 04°30' W 002°30'0 0.2
2017-Sep-16 19:30N 04°30' W 002°30'0 0.4
2017-Sep-16 19:00N 04°30' W 002°30'0 0.8
2017-Sep-16 18:29N 04°31' W 002°30'1 1.3
2017-Sep-16 17:59N 04°31' W 002°30'0 0.3
2017-Sep-16 17:29N 04°31' W 002°30'1 1.8
2017-Sep-16 17:00N 04°31' W 002°30'1 1.7
2017-Sep-16 16:30N 04°30' W 002°31'1 1.2
2017-Sep-16 16:00N 04°31' W 002°30'1 1.0
2017-Sep-16 15:29N 04°31' W 002°30'0 0.9
2017-Sep-16 15:00N 04°32' W 002°30'1 1.0
2017-Sep-16 14:30N 04°32' W 002°29'1 1.1
2017-Sep-16 14:00N 04°32' W 002°29'1 1.1
2017-Sep-16 13:29N 04°33' W 002°29'1 1.2
2017-Sep-16 12:59N 04°32' W 002°29'1 2.2
2017-Sep-16 12:29N 04°31' W 002°29'1 2.2
2017-Sep-16 12:00N 04°30' W 002°29'0 0.8
2017-Sep-16 11:30N 04°30' W 002°29'0 0.9
2017-Sep-16 11:00N 04°30' W 002°29'0 0.7
2017-Sep-16 10:29N 04°30' W 002°29'0 0.5
2017-Sep-16 09:59N 04°31' W 002°29'0 0.5
2017-Sep-16 09:28N 04°31' W 002°29'0 0.6
2017-Sep-16 09:00N 04°31' W 002°29'0 0.4
2017-Sep-16 08:30N 04°31' W 002°29'0 0.4
2017-Sep-16 08:00N 04°32' W 002°29'0 0.2
2017-Sep-16 07:29N 04°32' W 002°29'0 0.3
2017-Sep-16 06:59N 04°32' W 002°29'0 0.3
2017-Sep-16 06:30N 04°32' W 002°29'0 0.5
2017-Sep-16 06:00N 04°32' W 002°29'0 0.4
2017-Sep-16 05:30N 04°32' W 002°29'0 0.5
2017-Sep-16 04:59N 04°33' W 002°28'0 0.3
2017-Sep-16 04:29N 04°33' W 002°28'1 2.2
2017-Sep-16 04:00N 04°32' W 002°28'1 2.3
2017-Sep-16 03:30N 04°30' W 002°28'0 0.3
2017-Sep-16 03:00N 04°31' W 002°29'1 2.6
2017-Sep-16 02:30N 04°32' W 002°29'0 0.6
2017-Sep-16 01:59N 04°32' W 002°29'1 2.3
2017-Sep-16 01:29N 04°31' W 002°29'1 1.0
2017-Sep-16 00:59N 04°31' W 002°30'1 1.2
2017-Sep-16 00:30N 04°31' W 002°30'1 1.8
2017-Sep-16 00:00N 04°32' W 002°31'0 0.6
2017-Sep-15 23:29N 04°32' W 002°31'0 0.8
2017-Sep-15 22:59N 04°32' W 002°31'0 0.9
2017-Sep-15 22:30N 04°32' W 002°30'0 1.0
2017-Sep-15 22:00N 04°31' W 002°30'1 2.1
2017-Sep-15 21:30N 04°30' W 002°30'1 2.7
2017-Sep-15 21:00N 04°29' W 002°30'0 0.3
2017-Sep-15 20:29N 04°29' W 002°30'1 1.3
2017-Sep-15 19:59N 04°29' W 002°30'1 1.4
2017-Sep-15 19:30N 04°30' W 002°30'1 1.2
2017-Sep-15 19:00N 04°31' W 002°30'1 1.3
2017-Sep-15 18:29N 04°31' W 002°30'0 0.1
2017-Sep-15 17:57N 04°31' W 002°30'1 2.5
2017-Sep-15 17:30N 04°30' W 002°30'1 1.6
2017-Sep-15 17:00N 04°29' W 002°30'1 2.6
2017-Sep-15 16:30N 04°31' W 002°30'1 2.4
2017-Sep-15 15:59N 04°32' W 002°30'1 2.3
2017-Sep-15 15:29N 04°33' W 002°30'1 2.2
2017-Sep-15 14:59N 04°32' W 002°30'1 2.7
2017-Sep-15 14:29N 04°31' W 002°29'1 2.0
2017-Sep-15 13:59N 04°30' W 002°29'0 0.5
2017-Sep-15 13:30N 04°30' W 002°29'1 1.7
2017-Sep-15 13:00N 04°31' W 002°29'1 1.8
2017-Sep-15 12:29N 04°32' W 002°29'0 0.8
2017-Sep-15 11:59N 04°31' W 002°29'1 2.1
2017-Sep-15 11:30N 04°30' W 002°29'1 1.1
2017-Sep-15 11:00N 04°30' W 002°29'0 0.9
2017-Sep-15 10:30N 04°30' W 002°29'1 1.1
2017-Sep-15 09:59N 04°31' W 002°28'0 0.6
2017-Sep-15 09:29N 04°31' W 002°28'1 2.2
2017-Sep-15 09:00N 04°30' W 002°28'1 2.1
2017-Sep-15 08:28N 04°29' W 002°29'0 0.0
2017-Sep-15 08:00N 04°29' W 002°29'0 0.0
2017-Sep-15 07:29N 04°29' W 002°29'1 1.8
2017-Sep-15 07:00N 04°29' W 002°28'2 3.6
2017-Sep-15 06:30N 04°31' W 002°28'0 0.2
2017-Sep-15 06:00N 04°31' W 002°28'0 0.5
2017-Sep-15 05:30N 04°31' W 002°28'0 0.6
2017-Sep-15 04:59N 04°31' W 002°28'0 0.6
2017-Sep-15 04:29N 04°30' W 002°28'0 0.6
2017-Sep-15 04:00N 04°30' W 002°28'0 0.6
2017-Sep-15 03:30N 04°30' W 002°28'0 0.7
2017-Sep-15 02:59N 04°30' W 002°29'1 1.0
2017-Sep-15 02:29N 04°31' W 002°28'1 1.1
2017-Sep-15 01:59N 04°31' W 002°28'0 1.0
2017-Sep-15 01:30N 04°32' W 002°28'0 0.9
2017-Sep-15 01:00N 04°32' W 002°28'0 0.6
2017-Sep-15 00:27N 04°32' W 002°28'0 0.5
2017-Sep-15 00:00N 04°32' W 002°28'0 0.5
2017-Sep-14 23:30N 04°31' W 002°28'0 0.5
2017-Sep-14 22:59N 04°31' W 002°28'0 0.5
2017-Sep-14 22:29N 04°31' W 002°28'0 0.5
2017-Sep-14 22:00N 04°31' W 002°28'0 0.4
2017-Sep-14 21:30N 04°30' W 002°28'0 0.3
2017-Sep-14 21:00N 04°30' W 002°28'0 0.4
2017-Sep-14 20:30N 04°30' W 002°28'0 0.2
2017-Sep-14 19:59N 04°30' W 002°28'0 0.4
2017-Sep-14 19:29N 04°30' W 002°28'0 0.3
2017-Sep-14 19:00N 04°30' W 002°28'0 0.3
2017-Sep-14 18:29N 04°30' W 002°28'1 1.3
2017-Sep-14 17:59N 04°30' W 002°28'1 1.4
2017-Sep-14 17:30N 04°30' W 002°28'1 1.4
2017-Sep-14 17:00N 04°29' W 002°28'1 1.6
2017-Sep-14 16:30N 04°29' W 002°29'0 0.0
2017-Sep-14 15:59N 04°29' W 002°29'0 0.0
2017-Sep-14 15:29N 04°29' W 002°29'0 0.0
2017-Sep-14 14:59N 04°29' W 002°29'0 0.0
2017-Sep-14 14:30N 04°29' W 002°29'0 0.0
2017-Sep-14 14:00N 04°29' W 002°29'0 0.0
2017-Sep-14 13:27N 04°29' W 002°29'0 0.0
2017-Sep-14 12:59N 04°29' W 002°29'0 0.1
2017-Sep-14 12:29N 04°29' W 002°29'0 0.2
2017-Sep-14 12:00N 04°29' W 002°29'0 0.3
2017-Sep-14 11:30N 04°29' W 002°29'0 0.0
2017-Sep-14 10:59N 04°29' W 002°29'0 0.0
2017-Sep-14 10:29N 04°29' W 002°29'0 0.0
2017-Sep-14 10:01N 04°29' W 002°29'0 0.0
2017-Sep-14 09:30N 04°29' W 002°29'0 0.1
2017-Sep-14 08:59N 04°29' W 002°29'0 0.5
2017-Sep-14 08:25N 04°29' W 002°29'1 3.2
2017-Sep-14 08:00N 04°30' W 002°28'0 0.5
2017-Sep-14 07:30N 04°29' W 002°28'0 0.2
2017-Sep-14 07:00N 04°29' W 002°28'1 1.0
2017-Sep-14 06:29N 04°30' W 002°27'0 0.5
2017-Sep-14 05:59N 04°30' W 002°27'0 0.5
2017-Sep-14 05:29N 04°30' W 002°28'0 0.6
2017-Sep-14 05:00N 04°30' W 002°28'0 0.6
2017-Sep-14 04:30N 04°29' W 002°28'1 1.0
2017-Sep-14 03:59N 04°30' W 002°28'1 1.0
2017-Sep-14 03:25N 04°30' W 002°28'0 0.8
2017-Sep-14 02:58N 04°31' W 002°28'0 0.7
2017-Sep-14 02:30N 04°31' W 002°27'0 0.6
2017-Sep-14 02:00N 04°31' W 002°27'0 0.5
2017-Sep-14 01:29N 04°32' W 002°27'0 0.4
2017-Sep-14 00:59N 04°32' W 002°27'1 1.2
2017-Sep-14 00:30N 04°31' W 002°28'1 1.3
2017-Sep-14 00:00N 04°31' W 002°28'1 1.4
2017-Sep-13 23:30N 04°30' W 002°28'1 1.1
2017-Sep-13 22:59N 04°30' W 002°28'1 2.2
2017-Sep-13 22:29N 04°31' W 002°29'1 2.2
2017-Sep-13 22:00N 04°32' W 002°29'0 0.8
2017-Sep-13 21:29N 04°33' W 002°29'1 1.0
2017-Sep-13 20:59N 04°32' W 002°29'0 1.0
2017-Sep-13 20:30N 04°32' W 002°29'1 1.1
2017-Sep-13 20:00N 04°31' W 002°29'1 1.1
2017-Sep-13 19:30N 04°31' W 002°29'1 1.0
2017-Sep-13 18:55N 04°30' W 002°29'0 0.6
2017-Sep-13 18:29N 04°30' W 002°29'1 1.2
2017-Sep-13 18:00N 04°30' W 002°29'1 1.2
2017-Sep-13 17:30N 04°31' W 002°29'0 0.5
2017-Sep-13 16:59N 04°31' W 002°29'1 2.9
2017-Sep-13 16:29N 04°30' W 002°30'1 2.2
2017-Sep-13 15:59N 04°31' W 002°30'2 3.5
2017-Sep-13 15:30N 04°32' W 002°30'0 0.9
2017-Sep-13 14:59N 04°32' W 002°30'1 1.7
2017-Sep-13 14:30N 04°31' W 002°29'1 1.7
2017-Sep-13 14:00N 04°30' W 002°29'2 3.1
2017-Sep-13 13:30N 04°29' W 002°29'0 0.0
2017-Sep-13 12:59N 04°29' W 002°29'0 0.0
2017-Sep-13 12:29N 04°29' W 002°29'0 0.1
2017-Sep-13 11:59N 04°29' W 002°29'0 0.2
2017-Sep-13 11:22N 04°29' W 002°29'0 0.4
2017-Sep-13 10:59N 04°29' W 002°29'1 2.6
2017-Sep-13 10:29N 04°30' W 002°29'2 3.1
2017-Sep-13 09:59N 04°31' W 002°30'0 0.6
2017-Sep-13 09:30N 04°31' W 002°30'1 2.3
2017-Sep-13 09:00N 04°30' W 002°31'0 1.0
2017-Sep-13 08:29N 04°30' W 002°31'1 1.1
2017-Sep-13 07:59N 04°30' W 002°30'1 1.0
2017-Sep-13 07:29N 04°30' W 002°30'0 0.7
2017-Sep-13 07:00N 04°30' W 002°30'0 0.8
2017-Sep-13 06:30N 04°31' W 002°29'0 0.6
2017-Sep-13 05:59N 04°31' W 002°29'1 2.9
2017-Sep-13 05:29N 04°29' W 002°29'1 1.7
2017-Sep-13 04:59N 04°29' W 002°29'0 0.0
2017-Sep-13 04:30N 04°29' W 002°29'0 0.0
2017-Sep-13 04:00N 04°29' W 002°29'0 0.1
2017-Sep-13 03:28N 04°29' W 002°29'0 0.1
2017-Sep-13 02:37N 04°29' W 002°29'0 0.2
2017-Sep-13 02:29N 04°29' W 002°29'0 0.5
2017-Sep-13 01:59N 04°29' W 002°29'0 0.6
2017-Sep-13 01:29N 04°29' W 002°29'1 1.3
2017-Sep-13 00:59N 04°29' W 002°28'2 3.4
2017-Sep-13 00:29N 04°31' W 002°27'2 3.5
2017-Sep-12 23:58N 04°32' W 002°25'2 4.2
2017-Sep-12 23:30N 04°32' W 002°24'2 4.2
2017-Sep-12 22:59N 04°32' W 002°21'2 4.6
2017-Sep-12 22:29N 04°33' W 002°19'2 4.5
2017-Sep-12 22:00N 04°33' W 002°17'2 4.6
2017-Sep-12 21:30N 04°33' W 002°15'2 4.6
2017-Sep-12 21:00N 04°33' W 002°12'2 4.5
2017-Sep-12 20:29N 04°34' W 002°10'2 4.5
2017-Sep-12 19:59N 04°34' W 002°08'2 4.7
2017-Sep-12 19:29N 04°34' W 002°05'3 5.4
2017-Sep-12 19:00N 04°35' W 002°03'  
Track history (hours):
 
Tides and Currents Weather Stations Pressure Air Temp Water Temp Dewpoint Dewpoint Depression Visibility Wind Speed Wind Dir Waves Ship Positions

Posh Sincero

Last reported at 2017-Sep-22 02:00 UTC. Time now 2017-Sep-22 02:39 UTC.
Position N 04°29' W 002°29'.

Length 74 m; draft 4.9 m.

Type: Other ship. MMSI: 357667000.

Date/timePositionNaut miles runAvg speedWind from/ knotsBaromVisibWave heightAir tempDewpointWater temp
2017-Sep-22 02:00N 04°29' W 002°29'0 0.0
2017-Sep-22 01:30N 04°29' W 002°29'0 0.1
2017-Sep-22 01:00N 04°29' W 002°29'0 0.6
2017-Sep-22 00:29N 04°29' W 002°29'1 1.7
2017-Sep-21 23:59N 04°29' W 002°28'2 4.6
2017-Sep-21 23:31N 04°30' W 002°26'2 4.7
2017-Sep-21 23:00N 04°30' W 002°23'2 4.8
2017-Sep-21 22:29N 04°31' W 002°21'3 5.1
2017-Sep-21 21:59N 04°31' W 002°19'2 5.1
2017-Sep-21 21:30N 04°32' W 002°16'2 4.5
2017-Sep-21 21:00N 04°32' W 002°14'2 4.6
2017-Sep-21 20:27N 04°33' W 002°12'2 5.0
2017-Sep-21 20:00N 04°33' W 002°09'3 5.0
2017-Sep-21 19:30N 04°34' W 002°07'2 4.9
2017-Sep-21 19:00N 04°35' W 002°04'27 0.6
2017-Sep-19 18:52N 04°53' W 001°45'0 0.0
2017-Sep-19 18:22N 04°53' W 001°45'0 0.0
2017-Sep-19 17:58N 04°53' W 001°45'0 0.0
2017-Sep-19 17:25N 04°53' W 001°45'0 0.0
2017-Sep-19 16:58N 04°53' W 001°45'0 0.0
2017-Sep-19 16:28N 04°53' W 001°45'0 0.0
2017-Sep-19 15:58N 04°53' W 001°45'0 0.0
2017-Sep-19 15:28N 04°53' W 001°45'0 0.0
2017-Sep-19 14:58N 04°53' W 001°45'0 0.0
2017-Sep-19 14:28N 04°53' W 001°45'0 0.0
2017-Sep-19 13:58N 04°53' W 001°45'0 0.0
2017-Sep-19 13:28N 04°53' W 001°45'0 0.0
2017-Sep-19 12:58N 04°53' W 001°45'0 0.0
2017-Sep-19 12:28N 04°53' W 001°45'0 0.0
2017-Sep-19 11:58N 04°53' W 001°45'0 0.0
2017-Sep-19 11:28N 04°53' W 001°45'0 0.0
2017-Sep-19 10:58N 04°53' W 001°45'0 0.0
2017-Sep-19 10:28N 04°53' W 001°45'0 0.0
2017-Sep-19 09:58N 04°53' W 001°45'0 0.0
2017-Sep-19 09:28N 04°53' W 001°45'0 0.0
2017-Sep-19 08:58N 04°53' W 001°45'0 0.0
2017-Sep-19 08:25N 04°53' W 001°45'0 0.0
2017-Sep-19 07:58N 04°53' W 001°45'0 0.0
2017-Sep-19 07:25N 04°53' W 001°45'0 0.0
2017-Sep-19 06:58N 04°53' W 001°45'0 0.0
2017-Sep-19 06:25N 04°53' W 001°45'25 1.0
2017-Sep-18 05:14N 04°35' W 002°02'1 5.1
2017-Sep-18 05:00N 04°34' W 002°03'3 5.1
2017-Sep-18 04:29N 04°34' W 002°05'3 5.2
2017-Sep-18 03:59N 04°33' W 002°08'2 5.2
2017-Sep-18 03:30N 04°33' W 002°10'3 5.2
2017-Sep-18 03:00N 04°32' W 002°13'3 5.3
2017-Sep-18 02:29N 04°32' W 002°16'3 5.3
2017-Sep-18 01:59N 04°31' W 002°18'3 5.3
2017-Sep-18 01:30N 04°31' W 002°21'3 5.2
2017-Sep-18 01:00N 04°30' W 002°23'3 5.2
2017-Sep-18 00:29N 04°30' W 002°26'3 5.1
2017-Sep-17 23:59N 04°30' W 002°29'1 1.9
2017-Sep-17 23:29N 04°29' W 002°29'0 0.0
2017-Sep-17 23:00N 04°29' W 002°29'0 0.3
2017-Sep-17 22:30N 04°29' W 002°29'0 0.2
2017-Sep-17 22:00N 04°29' W 002°29'1 1.9
2017-Sep-17 21:29N 04°30' W 002°29'1 2.9
2017-Sep-17 20:59N 04°31' W 002°30'0 0.9
2017-Sep-17 20:29N 04°32' W 002°30'1 2.8
2017-Sep-17 19:59N 04°30' W 002°29'1 1.2
2017-Sep-17 19:30N 04°30' W 002°29'0 0.3
2017-Sep-17 19:00N 04°30' W 002°29'1 1.2
2017-Sep-17 18:29N 04°30' W 002°29'0 1.0
2017-Sep-17 17:59N 04°31' W 002°29'0 1.0
2017-Sep-17 17:30N 04°31' W 002°29'0 1.0
2017-Sep-17 17:00N 04°32' W 002°29'0 0.5
2017-Sep-17 16:30N 04°32' W 002°29'1 2.8
2017-Sep-17 15:59N 04°30' W 002°30'0 0.7
2017-Sep-17 15:28N 04°30' W 002°29'1 1.7
2017-Sep-17 15:00N 04°31' W 002°29'1 2.1
2017-Sep-17 14:30N 04°32' W 002°28'1 2.0
2017-Sep-17 13:59N 04°33' W 002°28'1 1.2
2017-Sep-17 13:29N 04°33' W 002°27'1 2.2
2017-Sep-17 12:59N 04°32' W 002°28'1 2.1
2017-Sep-17 12:30N 04°31' W 002°28'1 2.3
2017-Sep-17 12:00N 04°30' W 002°28'0 1.0
2017-Sep-17 11:29N 04°30' W 002°28'1 1.6
2017-Sep-17 10:59N 04°31' W 002°28'1 1.1
2017-Sep-17 10:30N 04°32' W 002°28'1 2.4
2017-Sep-17 10:00N 04°30' W 002°28'1 2.4
2017-Sep-17 09:29N 04°29' W 002°28'0 0.6
2017-Sep-17 08:59N 04°30' W 002°28'0 0.7
2017-Sep-17 08:28N 04°30' W 002°28'0 0.8
2017-Sep-17 08:00N 04°30' W 002°28'0 0.8
2017-Sep-17 07:30N 04°31' W 002°28'0 0.9
2017-Sep-17 06:59N 04°31' W 002°28'1 1.2
2017-Sep-17 06:29N 04°32' W 002°28'1 1.1
2017-Sep-17 06:00N 04°32' W 002°28'0 0.7
2017-Sep-17 05:30N 04°33' W 002°28'0 0.4
2017-Sep-17 04:59N 04°33' W 002°28'0 0.4
2017-Sep-17 04:29N 04°33' W 002°28'0 0.3
2017-Sep-17 04:00N 04°33' W 002°28'1 2.1
2017-Sep-17 03:30N 04°32' W 002°29'1 2.0
2017-Sep-17 03:00N 04°31' W 002°29'0 0.8
2017-Sep-17 02:29N 04°31' W 002°29'0 0.9
2017-Sep-17 01:59N 04°31' W 002°30'0 0.9
2017-Sep-17 01:30N 04°31' W 002°30'0 0.8
2017-Sep-17 01:00N 04°32' W 002°30'1 1.1
2017-Sep-17 00:30N 04°32' W 002°31'1 1.1
2017-Sep-16 23:59N 04°33' W 002°31'0 0.3
2017-Sep-16 23:29N 04°33' W 002°31'0 0.4
2017-Sep-16 23:00N 04°33' W 002°31'0 0.0
2017-Sep-16 22:30N 04°33' W 002°31'1 2.1
2017-Sep-16 22:00N 04°32' W 002°31'1 2.0
2017-Sep-16 21:29N 04°31' W 002°30'1 1.9
2017-Sep-16 20:59N 04°30' W 002°30'0 0.6
2017-Sep-16 20:30N 04°30' W 002°30'0 0.3
2017-Sep-16 20:00N 04°30' W 002°30'0 0.2
2017-Sep-16 19:30N 04°30' W 002°30'0 0.4
2017-Sep-16 19:00N 04°30' W 002°30'0 0.8
2017-Sep-16 18:29N 04°31' W 002°30'1 1.3
2017-Sep-16 17:59N 04°31' W 002°30'0 0.3
2017-Sep-16 17:29N 04°31' W 002°30'1 1.8
2017-Sep-16 17:00N 04°31' W 002°30'1 1.7
2017-Sep-16 16:30N 04°30' W 002°31'1 1.2
2017-Sep-16 16:00N 04°31' W 002°30'1 1.0
2017-Sep-16 15:29N 04°31' W 002°30'0 0.9
2017-Sep-16 15:00N 04°32' W 002°30'1 1.0
2017-Sep-16 14:30N 04°32' W 002°29'1 1.1
2017-Sep-16 14:00N 04°32' W 002°29'1 1.1
2017-Sep-16 13:29N 04°33' W 002°29'1 1.2
2017-Sep-16 12:59N 04°32' W 002°29'1 2.2
2017-Sep-16 12:29N 04°31' W 002°29'1 2.2
2017-Sep-16 12:00N 04°30' W 002°29'0 0.8
2017-Sep-16 11:30N 04°30' W 002°29'0 0.9
2017-Sep-16 11:00N 04°30' W 002°29'0 0.7
2017-Sep-16 10:29N 04°30' W 002°29'0 0.5
2017-Sep-16 09:59N 04°31' W 002°29'0 0.5
2017-Sep-16 09:28N 04°31' W 002°29'0 0.6
2017-Sep-16 09:00N 04°31' W 002°29'0 0.4
2017-Sep-16 08:30N 04°31' W 002°29'0 0.4
2017-Sep-16 08:00N 04°32' W 002°29'0 0.2
2017-Sep-16 07:29N 04°32' W 002°29'0 0.3
2017-Sep-16 06:59N 04°32' W 002°29'0 0.3
2017-Sep-16 06:30N 04°32' W 002°29'0 0.5
2017-Sep-16 06:00N 04°32' W 002°29'0 0.4
2017-Sep-16 05:30N 04°32' W 002°29'0 0.5
2017-Sep-16 04:59N 04°33' W 002°28'0 0.3
2017-Sep-16 04:29N 04°33' W 002°28'1 2.2
2017-Sep-16 04:00N 04°32' W 002°28'1 2.3
2017-Sep-16 03:30N 04°30' W 002°28'0 0.3
2017-Sep-16 03:00N 04°31' W 002°29'1 2.6
2017-Sep-16 02:30N 04°32' W 002°29'0 0.6
2017-Sep-16 01:59N 04°32' W 002°29'1 2.3
2017-Sep-16 01:29N 04°31' W 002°29'1 1.0
2017-Sep-16 00:59N 04°31' W 002°30'1 1.2
2017-Sep-16 00:30N 04°31' W 002°30'1 1.8
2017-Sep-16 00:00N 04°32' W 002°31'0 0.6
2017-Sep-15 23:29N 04°32' W 002°31'0 0.8
2017-Sep-15 22:59N 04°32' W 002°31'0 0.9
2017-Sep-15 22:30N 04°32' W 002°30'0 1.0
2017-Sep-15 22:00N 04°31' W 002°30'1 2.1
2017-Sep-15 21:30N 04°30' W 002°30'1 2.7
2017-Sep-15 21:00N 04°29' W 002°30'0 0.3
2017-Sep-15 20:29N 04°29' W 002°30'1 1.3
2017-Sep-15 19:59N 04°29' W 002°30'1 1.4
2017-Sep-15 19:30N 04°30' W 002°30'1 1.2
2017-Sep-15 19:00N 04°31' W 002°30'1 1.3
2017-Sep-15 18:29N 04°31' W 002°30'0 0.1
2017-Sep-15 17:57N 04°31' W 002°30'1 2.5
2017-Sep-15 17:30N 04°30' W 002°30'1 1.6
2017-Sep-15 17:00N 04°29' W 002°30'1 2.6
2017-Sep-15 16:30N 04°31' W 002°30'1 2.4
2017-Sep-15 15:59N 04°32' W 002°30'1 2.3
2017-Sep-15 15:29N 04°33' W 002°30'1 2.2
2017-Sep-15 14:59N 04°32' W 002°30'1 2.7
2017-Sep-15 14:29N 04°31' W 002°29'1 2.0
2017-Sep-15 13:59N 04°30' W 002°29'0 0.5
2017-Sep-15 13:30N 04°30' W 002°29'1 1.7
2017-Sep-15 13:00N 04°31' W 002°29'1 1.8
2017-Sep-15 12:29N 04°32' W 002°29'0 0.8
2017-Sep-15 11:59N 04°31' W 002°29'1 2.1
2017-Sep-15 11:30N 04°30' W 002°29'1 1.1
2017-Sep-15 11:00N 04°30' W 002°29'0 0.9
2017-Sep-15 10:30N 04°30' W 002°29'1 1.1
2017-Sep-15 09:59N 04°31' W 002°28'0 0.6
2017-Sep-15 09:29N 04°31' W 002°28'1 2.2
2017-Sep-15 09:00N 04°30' W 002°28'1 2.1
2017-Sep-15 08:28N 04°29' W 002°29'0 0.0
2017-Sep-15 08:00N 04°29' W 002°29'0 0.0
2017-Sep-15 07:29N 04°29' W 002°29'1 1.8
2017-Sep-15 07:00N 04°29' W 002°28'2 3.6
2017-Sep-15 06:30N 04°31' W 002°28'0 0.2
2017-Sep-15 06:00N 04°31' W 002°28'0 0.5
2017-Sep-15 05:30N 04°31' W 002°28'0 0.6
2017-Sep-15 04:59N 04°31' W 002°28'0 0.6
2017-Sep-15 04:29N 04°30' W 002°28'0 0.6
2017-Sep-15 04:00N 04°30' W 002°28'0 0.6
2017-Sep-15 03:30N 04°30' W 002°28'0 0.7
2017-Sep-15 02:59N 04°30' W 002°29'1 1.0
2017-Sep-15 02:29N 04°31' W 002°28'1 1.1
2017-Sep-15 01:59N 04°31' W 002°28'0 1.0
2017-Sep-15 01:30N 04°32' W 002°28'0 0.9
2017-Sep-15 01:00N 04°32' W 002°28'0 0.6
2017-Sep-15 00:27N 04°32' W 002°28'0 0.5
2017-Sep-15 00:00N 04°32' W 002°28'0 0.5
2017-Sep-14 23:30N 04°31' W 002°28'0 0.5
2017-Sep-14 22:59N 04°31' W 002°28'0 0.5
2017-Sep-14 22:29N 04°31' W 002°28'0 0.5
2017-Sep-14 22:00N 04°31' W 002°28'0 0.4
2017-Sep-14 21:30N 04°30' W 002°28'0 0.3
2017-Sep-14 21:00N 04°30' W 002°28'0 0.4
2017-Sep-14 20:30N 04°30' W 002°28'0 0.2
2017-Sep-14 19:59N 04°30' W 002°28'0 0.4
2017-Sep-14 19:29N 04°30' W 002°28'0 0.3
2017-Sep-14 19:00N 04°30' W 002°28'0 0.3
2017-Sep-14 18:29N 04°30' W 002°28'1 1.3
2017-Sep-14 17:59N 04°30' W 002°28'1 1.4
2017-Sep-14 17:30N 04°30' W 002°28'1 1.4
2017-Sep-14 17:00N 04°29' W 002°28'1 1.6
2017-Sep-14 16:30N 04°29' W 002°29'0 0.0
2017-Sep-14 15:59N 04°29' W 002°29'0 0.0
2017-Sep-14 15:29N 04°29' W 002°29'0 0.0
2017-Sep-14 14:59N 04°29' W 002°29'0 0.0
2017-Sep-14 14:30N 04°29' W 002°29'0 0.0
2017-Sep-14 14:00N 04°29' W 002°29'0 0.0
2017-Sep-14 13:27N 04°29' W 002°29'0 0.0
2017-Sep-14 12:59N 04°29' W 002°29'0 0.1
2017-Sep-14 12:29N 04°29' W 002°29'0 0.2
2017-Sep-14 12:00N 04°29' W 002°29'0 0.3
2017-Sep-14 11:30N 04°29' W 002°29'0 0.0
2017-Sep-14 10:59N 04°29' W 002°29'0 0.0
2017-Sep-14 10:29N 04°29' W 002°29'0 0.0
2017-Sep-14 10:01N 04°29' W 002°29'0 0.0
2017-Sep-14 09:30N 04°29' W 002°29'0 0.1
2017-Sep-14 08:59N 04°29' W 002°29'0 0.5
2017-Sep-14 08:25N 04°29' W 002°29'1 3.2
2017-Sep-14 08:00N 04°30' W 002°28'0 0.5
2017-Sep-14 07:30N 04°29' W 002°28'0 0.2
2017-Sep-14 07:00N 04°29' W 002°28'1 1.0
2017-Sep-14 06:29N 04°30' W 002°27'0 0.5
2017-Sep-14 05:59N 04°30' W 002°27'0 0.5
2017-Sep-14 05:29N 04°30' W 002°28'0 0.6
2017-Sep-14 05:00N 04°30' W 002°28'0 0.6
2017-Sep-14 04:30N 04°29' W 002°28'1 1.0
2017-Sep-14 03:59N 04°30' W 002°28'1 1.0
2017-Sep-14 03:25N 04°30' W 002°28'0 0.8
2017-Sep-14 02:58N 04°31' W 002°28'0 0.7
2017-Sep-14 02:30N 04°31' W 002°27'0 0.6
2017-Sep-14 02:00N 04°31' W 002°27'0 0.5
2017-Sep-14 01:29N 04°32' W 002°27'0 0.4
2017-Sep-14 00:59N 04°32' W 002°27'1 1.2
2017-Sep-14 00:30N 04°31' W 002°28'1 1.3
2017-Sep-14 00:00N 04°31' W 002°28'1 1.4
2017-Sep-13 23:30N 04°30' W 002°28'1 1.1
2017-Sep-13 22:59N 04°30' W 002°28'1 2.2
2017-Sep-13 22:29N 04°31' W 002°29'1 2.2
2017-Sep-13 22:00N 04°32' W 002°29'0 0.8
2017-Sep-13 21:29N 04°33' W 002°29'1 1.0
2017-Sep-13 20:59N 04°32' W 002°29'0 1.0
2017-Sep-13 20:30N 04°32' W 002°29'1 1.1
2017-Sep-13 20:00N 04°31' W 002°29'1 1.1
2017-Sep-13 19:30N 04°31' W 002°29'1 1.0
2017-Sep-13 18:55N 04°30' W 002°29'0 0.6
2017-Sep-13 18:29N 04°30' W 002°29'1 1.2
2017-Sep-13 18:00N 04°30' W 002°29'1 1.2
2017-Sep-13 17:30N 04°31' W 002°29'0 0.5
2017-Sep-13 16:59N 04°31' W 002°29'1 2.9
2017-Sep-13 16:29N 04°30' W 002°30'1 2.2
2017-Sep-13 15:59N 04°31' W 002°30'2 3.5
2017-Sep-13 15:30N 04°32' W 002°30'0 0.9
2017-Sep-13 14:59N 04°32' W 002°30'1 1.7
2017-Sep-13 14:30N 04°31' W 002°29'1 1.7
2017-Sep-13 14:00N 04°30' W 002°29'2 3.1
2017-Sep-13 13:30N 04°29' W 002°29'0 0.0
2017-Sep-13 12:59N 04°29' W 002°29'0 0.0
2017-Sep-13 12:29N 04°29' W 002°29'0 0.1
2017-Sep-13 11:59N 04°29' W 002°29'0 0.2
2017-Sep-13 11:22N 04°29' W 002°29'0 0.4
2017-Sep-13 10:59N 04°29' W 002°29'1 2.6
2017-Sep-13 10:29N 04°30' W 002°29'2 3.1
2017-Sep-13 09:59N 04°31' W 002°30'0 0.6
2017-Sep-13 09:30N 04°31' W 002°30'1 2.3
2017-Sep-13 09:00N 04°30' W 002°31'0 1.0
2017-Sep-13 08:29N 04°30' W 002°31'1 1.1
2017-Sep-13 07:59N 04°30' W 002°30'1 1.0
2017-Sep-13 07:29N 04°30' W 002°30'0 0.7
2017-Sep-13 07:00N 04°30' W 002°30'0 0.8
2017-Sep-13 06:30N 04°31' W 002°29'0 0.6
2017-Sep-13 05:59N 04°31' W 002°29'1 2.9
2017-Sep-13 05:29N 04°29' W 002°29'1 1.7
2017-Sep-13 04:59N 04°29' W 002°29'0 0.0
2017-Sep-13 04:30N 04°29' W 002°29'0 0.0
2017-Sep-13 04:00N 04°29' W 002°29'0 0.1
2017-Sep-13 03:28N 04°29' W 002°29'0 0.1
2017-Sep-13 02:37N 04°29' W 002°29'0 0.2
2017-Sep-13 02:29N 04°29' W 002°29'0 0.5
2017-Sep-13 01:59N 04°29' W 002°29'0 0.6
2017-Sep-13 01:29N 04°29' W 002°29'1 1.3
2017-Sep-13 00:59N 04°29' W 002°28'2 3.4
2017-Sep-13 00:29N 04°31' W 002°27'2 3.5
2017-Sep-12 23:58N 04°32' W 002°25'2 4.2
2017-Sep-12 23:30N 04°32' W 002°24'2 4.2
2017-Sep-12 22:59N 04°32' W 002°21'2 4.6
2017-Sep-12 22:29N 04°33' W 002°19'2 4.5
2017-Sep-12 22:00N 04°33' W 002°17'2 4.6
2017-Sep-12 21:30N 04°33' W 002°15'2 4.6
2017-Sep-12 21:00N 04°33' W 002°12'2 4.5
2017-Sep-12 20:29N 04°34' W 002°10'2 4.5
2017-Sep-12 19:59N 04°34' W 002°08'2 4.7
2017-Sep-12 19:29N 04°34' W 002°05'3 5.4
2017-Sep-12 19:00N 04°35' W 002°03'  

Dump ship's entire track history